Time;durP1;ratioP1;P1;durP2;ratioP2;P2;SDS_P1;SDS_P2;PMS_P1;PMS_P2;Temp;Humidity;BMP_temperature;BMP_pressure;BME280_temperature;BME280_humidity;BME280_pressure;Samples;Min_cycle;Max_cycle;Signal;HPM_P1;HPM_P2
2022/05/10 00:02:11;;;;;;;9.38;5.90;;;16.90;99.90;;;;;;5098673;28;20460;-64
2022/05/10 00:04:38;;;;;;;10.15;6.40;;;16.80;99.90;;;;;;5099049;28;20028;-64
2022/05/10 00:07:04;;;;;;;10.48;6.55;;;16.70;99.90;;;;;;5099131;28;20035;-64
2022/05/10 00:09:30;;;;;;;12.85;6.72;;;16.60;99.90;;;;;;5099229;28;20024;-64
2022/05/10 00:12:01;;;;;;;11.15;6.40;;;16.60;99.90;;;;;;5099265;28;20038;-64
2022/05/10 00:14:30;;;;;;;15.80;6.47;;;16.60;99.90;;;;;;5099151;28;20035;-64
2022/05/10 00:16:56;;;;;;;11.80;6.50;;;16.60;99.90;;;;;;5098905;28;20036;-64
2022/05/10 00:19:27;;;;;;;13.57;6.30;;;16.50;99.90;;;;;;5099265;28;20031;-65
2022/05/10 00:21:53;;;;;;;14.18;6.65;;;16.50;99.90;;;;;;5098888;28;20043;-64
2022/05/10 00:24:20;;;;;;;11.75;6.22;;;16.40;99.90;;;;;;5099261;28;20036;-64
2022/05/10 00:26:48;;;;;;;11.82;6.75;;;16.40;99.90;;;;;;5099158;28;20027;-64
2022/05/10 00:29:14;;;;;;;8.27;6.43;;;16.40;99.90;;;;;;5098203;28;20051;-64
2022/05/10 00:31:40;;;;;;;10.27;6.68;;;16.30;99.90;;;;;;5099114;28;20024;-64
2022/05/10 00:34:06;;;;;;;11.02;6.70;;;16.40;99.90;;;;;;5099010;28;20035;-64
2022/05/10 00:36:32;;;;;;;8.95;6.50;;;16.50;99.90;;;;;;5099114;28;20036;-64
2022/05/10 00:38:59;;;;;;;10.43;6.70;;;16.30;99.90;;;;;;5098627;28;20032;-64
2022/05/10 00:41:56;;;;;;;10.93;6.93;;;16.20;99.90;;;;;;5098683;28;20037;-64
2022/05/10 00:44:53;;;;;;;12.60;7.20;;;16.20;99.90;;;;;;5097720;28;20073;-64
2022/05/10 00:47:31;;;;;;;12.20;6.60;;;16.20;99.90;;;;;;5098358;28;20074;-64
2022/05/10 00:50:14;;;;;;;12.52;6.88;;;16.00;99.90;;;;;;5098330;28;20118;-64
2022/05/10 00:52:58;;;;;;;12.48;7.35;;;16.00;99.90;;;;;;5098334;28;20020;-64
2022/05/10 00:55:50;;;;;;;14.57;7.57;;;16.10;99.90;;;;;;5098697;28;20422;-64
2022/05/10 00:58:36;;;;;;;10.40;6.47;;;16.10;99.90;;;;;;5098305;28;20133;-64
2022/05/10 01:01:04;;;;;;;15.27;7.55;;;16.00;99.90;;;;;;5098482;28;20299;-65
2022/05/10 01:03:59;;;;;;;11.18;7.15;;;16.00;99.90;;;;;;5098725;28;20020;-64
2022/05/10 01:06:33;;;;;;;12.05;7.65;;;16.00;99.90;;;;;;5069555;28;20331;-65
2022/05/10 01:09:43;;;;;;;12.93;7.75;;;16.10;99.90;;;;;;5098203;28;20308;-64
2022/05/10 01:12:40;;;;;;;13.77;8.35;;;16.00;99.90;;;;;;5098491;28;20145;-65
2022/05/10 01:15:08;;;;;;;13.52;7.38;;;16.00;99.90;;;;;;5097105;28;20077;-64
2022/05/10 01:17:35;;;;;;;11.82;7.47;;;15.90;99.90;;;;;;5097738;28;20057;-64
2022/05/10 01:20:04;;;;;;;16.83;7.70;;;15.90;99.90;;;;;;5098271;28;20044;-64
2022/05/10 01:22:49;;;;;;;11.93;7.63;;;16.00;99.90;;;;;;5096960;28;20024;-64
2022/05/10 01:25:34;;;;;;;11.93;7.25;;;15.90;99.90;;;;;;5098024;28;20020;-64
2022/05/10 01:28:25;;;;;;;13.52;8.40;;;16.00;99.90;;;;;;5097793;28;20039;-65
2022/05/10 01:30:51;;;;;;;14.60;8.75;;;15.90;99.90;;;;;;5097669;28;20098;-64
2022/05/10 01:33:41;;;;;;;15.15;8.45;;;15.90;99.90;;;;;;5096969;28;20059;-64
2022/05/10 01:36:42;;;;;;;14.70;8.52;;;16.00;99.90;;;;;;5096978;28;20023;-64
2022/05/10 01:39:17;;;;;;;15.35;8.75;;;16.00;99.90;;;;;;5097719;28;20047;-64
2022/05/10 01:41:56;;;;;;;14.63;8.88;;;16.00;99.90;;;;;;5096740;28;20154;-65
2022/05/10 01:44:37;;;;;;;14.88;9.00;;;16.00;99.90;;;;;;5097648;28;20116;-65
2022/05/10 01:47:15;;;;;;;15.23;8.70;;;16.00;99.90;;;;;;5097769;28;20039;-64
2022/05/10 01:49:50;;;;;;;18.15;8.68;;;16.00;99.90;;;;;;5097015;28;20044;-64
2022/05/10 01:52:25;;;;;;;13.75;9.25;;;16.00;99.90;;;;;;5096632;28;20043;-64
2022/05/10 01:55:06;;;;;;;13.00;8.85;;;16.00;99.90;;;;;;5098213;28;20028;-64
2022/05/10 01:57:34;;;;;;;12.27;8.10;;;16.00;99.90;;;;;;5096406;28;20028;-64
2022/05/10 02:00:08;;;;;;;15.02;9.35;;;16.00;99.90;;;;;;5097245;28;20035;-64
2022/05/10 02:03:00;;;;;;;15.18;8.93;;;16.10;99.90;;;;;;5097269;28;20092;-64
2022/05/10 02:05:37;;;;;;;18.10;10.05;;;16.10;99.90;;;;;;5097908;28;20036;-64
2022/05/10 02:08:11;;;;;;;15.98;10.55;;;16.10;99.90;;;;;;5097210;28;20042;-64
2022/05/10 02:10:43;;;;;;;14.90;9.15;;;16.10;99.90;;;;;;5097135;28;20068;-65
2022/05/10 02:13:28;;;;;;;16.52;9.20;;;16.10;99.90;;;;;;5097483;28;20032;-64
2022/05/10 02:15:58;;;;;;;17.27;10.23;;;16.20;99.90;;;;;;5097387;28;20291;-64
2022/05/10 02:18:35;;;;;;;17.35;10.60;;;16.20;99.90;;;;;;5097209;28;20077;-64
2022/05/10 02:21:16;;;;;;;18.10;10.50;;;16.10;99.90;;;;;;5097253;28;20031;-64
2022/05/10 02:23:52;;;;;;;23.35;11.15;;;16.20;99.90;;;;;;5097056;28;20032;-64
2022/05/10 02:26:31;;;;;;;20.73;10.38;;;16.20;99.90;;;;;;5096081;28;20036;-65
2022/05/10 02:29:12;;;;;;;17.25;11.13;;;16.20;99.90;;;;;;5096282;28;20288;-65
2022/05/10 02:34:49;;;;;;;17.58;10.65;;;16.20;99.90;;;;;;5097172;28;20080;-65
2022/05/10 02:37:19;;;;;;;19.65;11.07;;;16.20;99.90;;;;;;5096879;28;20036;-64
2022/05/10 02:39:44;;;;;;;20.75;11.20;;;16.30;99.90;;;;;;5096899;28;20394;-64
2022/05/10 02:42:16;;;;;;;19.67;11.45;;;16.30;99.90;;;;;;5096653;28;20039;-64
2022/05/10 02:44:42;;;;;;;18.15;10.82;;;16.40;99.90;;;;;;5096145;28;20025;-64
2022/05/10 02:47:10;;;;;;;19.98;10.70;;;16.40;99.90;;;;;;5095415;28;20051;-64
2022/05/10 02:49:39;;;;;;;16.20;10.30;;;16.40;99.90;;;;;;5096743;28;20395;-65
2022/05/10 02:52:08;;;;;;;20.80;11.65;;;16.30;99.90;;;;;;5096485;28;20040;-65
2022/05/10 02:54:34;;;;;;;19.08;10.23;;;16.20;99.90;;;;;;5096608;28;20400;-66
2022/05/10 02:57:02;;;;;;;25.02;11.02;;;16.30;99.90;;;;;;5096639;28;20063;-67
2022/05/10 02:59:33;;;;;;;17.98;10.43;;;16.20;99.90;;;;;;5095680;28;20269;-65
2022/05/10 03:02:07;;;;;;;20.05;10.55;;;16.30;99.90;;;;;;5096881;28;20036;-66
2022/05/10 03:04:40;;;;;;;17.55;10.68;;;16.20;99.90;;;;;;5096548;28;20028;-65
2022/05/10 03:07:08;;;;;;;17.20;10.95;;;16.20;99.90;;;;;;5096967;28;20016;-66
2022/05/10 03:09:34;;;;;;;20.25;10.93;;;16.10;99.90;;;;;;5100510;28;20045;-66
2022/05/10 03:12:04;;;;;;;19.45;10.30;;;16.10;99.90;;;;;;5100525;28;20028;-66
2022/05/10 03:14:30;;;;;;;24.13;11.02;;;16.10;99.90;;;;;;5100985;28;20028;-66
2022/05/10 03:16:56;;;;;;;20.50;11.13;;;16.20;99.90;;;;;;5100298;28;20075;-68
2022/05/10 03:19:25;;;;;;;19.90;10.43;;;16.20;99.90;;;;;;5099511;28;20063;-66
2022/05/10 03:21:52;;;;;;;18.90;10.35;;;16.20;99.90;;;;;;5100455;28;20404;-64
2022/05/10 03:24:17;;;;;;;19.73;10.93;;;16.20;99.90;;;;;;5100021;28;20123;-66
2022/05/10 03:26:52;;;;;;;19.13;10.63;;;16.20;99.90;;;;;;5100092;28;20039;-66
2022/05/10 03:29:19;;;;;;;18.02;10.40;;;16.20;99.90;;;;;;5100099;28;20369;-67
2022/05/10 03:31:47;;;;;;;19.63;10.40;;;16.10;99.90;;;;;;5100110;28;20035;-66
2022/05/10 03:36:59;;;;;;;16.25;10.23;;;16.20;99.90;;;;;;5100055;28;20031;-66
2022/05/10 03:39:25;;;;;;;20.38;10.77;;;16.20;99.90;;;;;;5099734;28;20024;-65
2022/05/10 03:41:50;;;;;;;18.52;10.57;;;16.20;99.90;;;;;;5099772;28;20074;-67
2022/05/10 03:44:16;;;;;;;20.65;10.80;;;16.20;99.90;;;;;;5099637;28;20063;-66
2022/05/10 03:46:44;;;;;;;18.77;10.90;;;16.20;99.90;;;;;;5099184;28;20039;-65
2022/05/10 03:49:11;;;;;;;28.52;16.42;;;16.10;99.90;;;;;;5099369;28;20142;-65
2022/05/10 03:51:37;;;;;;;20.25;11.73;;;16.00;99.90;;;;;;5099726;28;20020;-67
2022/05/10 03:54:02;;;;;;;21.80;11.05;;;16.00;99.90;;;;;;5099576;28;20034;-67
2022/05/10 03:56:29;;;;;;;19.85;11.60;;;16.10;99.90;;;;;;5099492;28;20043;-67
2022/05/10 03:58:56;;;;;;;18.30;10.13;;;16.20;99.90;;;;;;5098822;28;20077;-66
2022/05/10 04:01:22;;;;;;;20.88;10.65;;;16.20;99.90;;;;;;5099333;28;20069;-67
2022/05/10 04:03:49;;;;;;;16.73;10.30;;;16.30;99.90;;;;;;5099232;28;20109;-67
2022/05/10 04:06:15;;;;;;;15.43;9.98;;;16.30;99.90;;;;;;5099298;28;20042;-67
2022/05/10 04:08:41;;;;;;;16.02;9.25;;;16.30;99.90;;;;;;5098723;28;20047;-68
2022/05/10 04:11:09;;;;;;;15.52;9.88;;;16.30;99.90;;;;;;5099248;28;20074;-67
2022/05/10 04:13:36;;;;;;;15.32;10.07;;;16.30;99.90;;;;;;5098371;28;20303;-67
2022/05/10 04:16:02;;;;;;;19.40;9.98;;;16.20;99.90;;;;;;5099707;28;20031;-68
2022/05/10 04:18:28;;;;;;;13.43;10.05;;;16.20;99.90;;;;;;5098460;28;20076;-68
2022/05/10 04:20:54;;;;;;;18.77;9.73;;;16.20;99.90;;;;;;5098385;28;20039;-68
2022/05/10 04:23:20;;;;;;;14.95;9.23;;;16.10;99.90;;;;;;5099388;28;20032;-67
2022/05/10 04:25:47;;;;;;;15.35;9.48;;;16.10;99.90;;;;;;5098691;28;20020;-67
2022/05/10 04:28:13;;;;;;;14.57;8.95;;;16.10;99.90;;;;;;5098877;28;20059;-67
2022/05/10 04:30:39;;;;;;;16.20;9.15;;;16.20;99.90;;;;;;5098922;28;20405;-67
2022/05/10 04:33:05;;;;;;;14.75;8.80;;;16.20;99.90;;;;;;5099466;28;20261;-67
2022/05/10 04:35:31;;;;;;;16.08;9.45;;;16.20;99.90;;;;;;5098885;28;20100;-65
2022/05/10 04:38:01;;;;;;;20.10;9.88;;;16.40;99.90;;;;;;5098686;28;20066;-67
2022/05/10 04:43:12;;;;;;;10.80;8.65;;;16.50;99.90;;;;;;5098642;28;20384;-68
2022/05/10 04:45:40;;;;;;;11.77;8.80;;;16.50;99.90;;;;;;5098512;28;20028;-68
2022/05/10 04:48:06;;;;;;;12.95;8.90;;;16.40;99.90;;;;;;5098510;28;20035;-68
2022/05/10 04:50:32;;;;;;;11.82;8.73;;;16.40;99.90;;;;;;5098533;28;20123;-68
2022/05/10 04:52:58;;;;;;;14.30;9.00;;;16.40;99.90;;;;;;5098460;28;20092;-68
2022/05/10 04:55:23;;;;;;;13.70;8.88;;;16.50;99.90;;;;;;5098091;28;20300;-66
2022/05/10 04:57:49;;;;;;;12.23;7.72;;;16.50;99.90;;;;;;5098576;28;20107;-66
2022/05/10 05:00:21;;;;;;;11.27;7.82;;;16.60;99.90;;;;;;5098173;28;20119;-66
2022/05/10 05:02:47;;;;;;;14.13;9.13;;;16.70;99.90;;;;;;5098241;28;20311;-67
2022/05/10 05:05:13;;;;;;;12.32;8.40;;;16.90;99.90;;;;;;5098655;28;20176;-66
2022/05/10 05:07:41;;;;;;;12.45;8.30;;;16.90;99.90;;;;;;5097365;28;20040;-66
2022/05/10 05:10:07;;;;;;;12.30;8.35;;;16.90;99.90;;;;;;5080782;28;20035;-67
2022/05/10 05:12:37;;;;;;;11.80;8.05;;;17.00;99.90;;;;;;5097969;28;20273;-66
2022/05/10 05:15:06;;;;;;;13.57;7.72;;;17.20;99.90;;;;;;5098018;28;20083;-66
2022/05/10 05:17:36;;;;;;;10.73;7.80;;;17.20;99.90;;;;;;5098230;28;20023;-66
2022/05/10 05:20:03;;;;;;;11.30;7.20;;;17.00;99.90;;;;;;5097115;28;20339;-67
2022/05/10 05:22:31;;;;;;;13.52;7.80;;;17.00;99.90;;;;;;5097626;28;20036;-67
2022/05/10 05:24:57;;;;;;;11.80;7.78;;;17.10;99.90;;;;;;5097774;28;20047;-67
2022/05/10 05:27:23;;;;;;;14.98;8.27;;;17.00;99.90;;;;;;5097778;28;20380;-67
2022/05/10 05:29:49;;;;;;;12.85;7.85;;;17.00;99.90;;;;;;5079652;28;20267;-68
2022/05/10 05:32:18;;;;;;;12.88;7.72;;;17.00;99.90;;;;;;5097485;28;20032;-68
2022/05/10 05:34:46;;;;;;;12.55;7.93;;;17.20;99.90;;;;;;5097926;28;20028;-67
2022/05/10 05:40:03;;;;;;;12.75;8.10;;;17.20;99.90;;;;;;5097630;28;20046;-67
2022/05/10 05:42:29;;;;;;;17.45;8.32;;;17.40;99.90;;;;;;5098006;28;20067;-69
2022/05/10 05:44:55;;;;;;;14.05;7.57;;;17.30;99.90;;;;;;5097344;28;20024;-69
2022/05/10 05:47:21;;;;;;;13.95;7.80;;;17.40;99.90;;;;;;5097415;28;20045;-69
2022/05/10 05:49:47;;;;;;;12.85;8.07;;;17.50;99.90;;;;;;5098696;28;20131;-67
2022/05/10 05:52:17;;;;;;;14.13;8.05;;;17.60;99.90;;;;;;5096545;28;20182;-65
2022/05/10 05:54:44;;;;;;;17.73;7.78;;;17.70;99.90;;;;;;5097298;28;20051;-67
2022/05/10 05:57:10;;;;;;;14.93;8.43;;;17.80;99.90;;;;;;5097213;28;20103;-66
2022/05/10 05:59:36;;;;;;;16.67;7.60;;;18.10;99.90;;;;;;5097210;28;20039;-67
2022/05/10 06:02:02;;;;;;;16.63;7.45;;;17.90;99.90;;;;;;5097325;28;20032;-66
2022/05/10 06:04:28;;;;;;;15.77;7.70;;;18.00;99.90;;;;;;5096988;28;20384;-67
2022/05/10 06:06:55;;;;;;;17.17;7.80;;;18.00;99.90;;;;;;5097516;28;20437;-67
2022/05/10 06:09:22;;;;;;;12.30;7.47;;;17.90;99.90;;;;;;5097045;28;20020;-66
2022/05/10 06:11:49;;;;;;;16.42;8.40;;;17.90;99.90;;;;;;5096996;28;20089;-66
2022/05/10 06:14:15;;;;;;;12.07;7.38;;;17.90;99.90;;;;;;5097770;28;20399;-67
2022/05/10 06:16:41;;;;;;;14.48;7.45;;;18.00;99.90;;;;;;5097191;28;20040;-66
2022/05/10 06:19:16;;;;;;;14.82;7.60;;;18.10;99.90;;;;;;5097983;28;20028;-68
2022/05/10 06:21:43;;;;;;;16.73;8.00;;;18.20;99.90;;;;;;5100033;28;20066;-66
2022/05/10 06:24:10;;;;;;;12.18;7.60;;;18.30;99.90;;;;;;5098510;28;20048;-66
2022/05/10 06:26:37;;;;;;;15.45;7.80;;;18.40;99.90;;;;;;5098312;28;20058;-67
2022/05/10 06:29:03;;;;;;;14.73;7.40;;;18.40;99.90;;;;;;5097493;28;20024;-68
2022/05/10 06:31:29;;;;;;;12.88;6.85;;;18.40;99.90;;;;;;5097229;28;20084;-67
2022/05/10 06:33:56;;;;;;;13.07;7.38;;;18.50;99.90;;;;;;5097500;28;20119;-67
2022/05/10 06:36:21;;;;;;;17.48;7.88;;;18.50;99.90;;;;;;5096192;28;20060;-68
2022/05/10 06:38:47;;;;;;;10.70;7.32;;;18.50;99.90;;;;;;5096988;28;20043;-67
2022/05/10 06:41:13;;;;;;;10.50;6.88;;;18.50;99.90;;;;;;5096788;28;20036;-67
2022/05/10 06:43:39;;;;;;;19.60;7.85;;;18.70;99.90;;;;;;5099580;28;20028;-68
2022/05/10 06:46:11;;;;;;;11.45;6.45;;;18.80;99.90;;;;;;5084040;28;20353;-68
2022/05/10 06:48:41;;;;;;;15.73;6.60;;;19.10;99.90;;;;;;5100456;28;20039;-66
2022/05/10 06:51:09;;;;;;;12.40;7.55;;;19.30;99.90;;;;;;5101198;28;20040;-68
2022/05/10 06:53:36;;;;;;;14.77;7.45;;;19.30;99.90;;;;;;5100928;28;20331;-68
2022/05/10 06:56:03;;;;;;;13.82;7.07;;;19.40;99.90;;;;;;5100759;28;20039;-68
2022/05/10 06:58:29;;;;;;;11.98;6.88;;;19.40;99.90;;;;;;5100171;28;20060;-68
2022/05/10 07:00:54;;;;;;;17.77;7.60;;;19.50;99.90;;;;;;5100551;28;20059;-68
2022/05/10 07:03:31;;;;;;;14.38;6.97;;;19.50;99.90;;;;;;5100522;28;20032;-67
2022/05/10 07:05:59;;;;;;;13.73;6.97;;;19.50;99.90;;;;;;5100981;28;20028;-68
2022/05/10 07:08:26;;;;;;;13.88;6.85;;;19.50;99.90;;;;;;5100443;28;20023;-68
2022/05/10 07:10:52;;;;;;;13.60;6.93;;;19.50;99.90;;;;;;5100438;28;20028;-68
2022/05/10 07:13:20;;;;;;;10.68;6.05;;;19.50;99.90;;;;;;5099764;28;20036;-69
2022/05/10 07:15:46;;;;;;;15.15;7.20;;;19.80;99.90;;;;;;5100380;28;20074;-67
2022/05/10 07:18:13;;;;;;;14.68;6.82;;;19.90;99.90;;;;;;5099482;28;20024;-66
2022/05/10 07:20:40;;;;;;;18.13;6.80;;;20.00;99.90;;;;;;5100122;28;20028;-68
2022/05/10 07:23:06;;;;;;;12.50;6.50;;;19.90;99.90;;;;;;5100361;28;20236;-67
2022/05/10 07:25:33;;;;;;;14.38;6.40;;;20.20;99.90;;;;;;5100124;28;20454;-67
2022/05/10 07:27:59;;;;;;;17.40;6.35;;;20.40;99.90;;;;;;5100105;28;20028;-67
2022/05/10 07:30:26;;;;;;;16.25;6.00;;;20.40;99.90;;;;;;5100883;28;20016;-68
2022/05/10 07:32:53;;;;;;;11.98;5.55;;;20.50;99.90;;;;;;5100111;28;20333;-68
2022/05/10 07:36:23;;;;;;;10.45;5.80;;;20.30;99.90;;;;;;5100150;28;20371;-68
2022/05/10 07:38:08;;;;;;;12.88;5.93;;;20.30;99.90;;;;;;5100117;28;20035;-67
2022/05/10 07:40:34;;;;;;;8.38;5.18;;;20.30;99.90;;;;;;5099287;28;20402;-68
2022/05/10 07:43:03;;;;;;;7.28;5.43;;;20.60;99.90;;;;;;5099528;28;20416;-66
2022/05/10 07:45:28;;;;;;;9.63;5.50;;;20.90;99.90;;;;;;5082353;28;20031;-68
2022/05/10 07:47:54;;;;;;;8.40;5.28;;;20.70;99.90;;;;;;5099840;28;20036;-68
2022/05/10 07:50:20;;;;;;;7.47;4.72;;;20.90;99.90;;;;;;5099629;28;20315;-65
2022/05/10 07:52:46;;;;;;;9.15;4.65;;;21.00;99.90;;;;;;5099723;28;20028;-66
2022/05/10 07:55:13;;;;;;;7.32;4.65;;;21.10;99.90;;;;;;5099567;28;20296;-68
2022/05/10 07:57:40;;;;;;;7.35;5.10;;;21.10;99.90;;;;;;5099607;28;20156;-68
2022/05/10 08:00:11;;;;;;;11.93;4.80;;;21.00;99.90;;;;;;5099866;28;20273;-67
2022/05/10 08:02:42;;;;;;;6.38;4.57;;;21.20;99.90;;;;;;5099623;28;20032;-66
2022/05/10 08:05:16;;;;;;;9.90;4.80;;;21.20;99.90;;;;;;5099677;28;20122;-68
2022/05/10 08:07:42;;;;;;;6.72;4.78;;;21.20;99.90;;;;;;5099988;28;20128;-69
2022/05/10 08:10:08;;;;;;;13.70;4.97;;;21.10;99.90;;;;;;5099171;28;20056;-69
2022/05/10 08:12:34;;;;;;;9.80;5.00;;;21.00;99.90;;;;;;5099935;28;20032;-68
2022/05/10 08:14:59;;;;;;;7.15;4.75;;;21.00;99.90;;;;;;5098791;28;20043;-67
2022/05/10 08:17:25;;;;;;;7.55;5.00;;;21.30;99.90;;;;;;5098669;28;20043;-67
2022/05/10 08:19:54;;;;;;;7.00;4.93;;;21.50;99.90;;;;;;5098908;28;20028;-68
2022/05/10 08:22:19;;;;;;;7.30;5.38;;;21.30;99.90;;;;;;5098806;28;20409;-67
2022/05/10 08:24:45;;;;;;;7.53;4.82;;;21.50;99.90;;;;;;5098325;28;20047;-67
2022/05/10 08:27:11;;;;;;;8.00;4.88;;;21.60;99.90;;;;;;5099093;28;20028;-68
2022/05/10 08:29:37;;;;;;;8.05;5.28;;;21.60;99.90;;;;;;5099509;28;20032;-67
2022/05/10 08:32:03;;;;;;;8.52;5.50;;;21.60;99.90;;;;;;5099115;28;20388;-68
2022/05/10 08:34:32;;;;;;;6.65;5.28;;;21.80;99.90;;;;;;5099160;28;20036;-67
2022/05/10 08:36:58;;;;;;;9.23;5.30;;;21.80;99.90;;;;;;5098956;28;20061;-67
2022/05/10 08:39:24;;;;;;;16.83;5.03;;;21.70;99.90;;;;;;5099220;28;20067;-67
2022/05/10 08:42:28;;;;;;;10.02;5.80;;;21.80;99.90;;;;;;5098517;28;20036;-68
2022/05/10 08:45:01;;;;;;;13.57;5.22;;;22.10;99.90;;;;;;5099016;28;20046;-69
2022/05/10 08:47:28;;;;;;;10.98;5.50;;;22.10;99.90;;;;;;5099074;28;20353;-66
2022/05/10 08:49:59;;;;;;;9.20;5.75;;;22.10;99.90;;;;;;5098718;28;20071;-67
2022/05/10 08:52:40;;;;;;;9.65;5.65;;;22.30;99.90;;;;;;5099060;28;20024;-67
2022/05/10 08:55:08;;;;;;;8.18;5.18;;;22.30;99.90;;;;;;5098856;28;20040;-67
2022/05/10 08:58:02;;;;;;;7.40;4.95;;;22.30;99.90;;;;;;5098634;28;20039;-68
2022/05/10 09:00:46;;;;;;;7.85;5.20;;;22.40;99.90;;;;;;5099172;28;20039;-68
2022/05/10 09:03:33;;;;;;;10.50;5.28;;;22.60;99.90;;;;;;5081189;28;20122;-65
2022/05/10 09:06:50;;;;;;;8.68;5.18;;;22.80;99.90;;;;;;5098548;28;20063;-66
2022/05/10 09:09:29;;;;;;;7.05;4.72;;;23.20;99.90;;;;;;5039295;28;20130;-67
2022/05/10 09:12:07;;;;;;;6.60;4.35;;;22.80;99.90;;;;;;5097491;28;20032;-67
2022/05/10 09:14:40;;;;;;;10.35;4.47;;;23.10;99.90;;;;;;5098053;28;20388;-64
2022/05/10 09:17:07;;;;;;;7.13;4.40;;;23.30;99.90;;;;;;5098232;28;20040;-64
2022/05/10 09:19:42;;;;;;;9.15;4.30;;;23.60;99.90;;;;;;5098239;28;20056;-66
2022/05/10 09:22:36;;;;;;;8.30;4.90;;;23.70;99.90;;;;;;5098132;28;20032;-67
2022/05/10 09:25:13;;;;;;;7.03;4.15;;;24.00;99.90;;;;;;5098069;28;20020;-66
2022/05/10 09:27:40;;;;;;;12.45;4.55;;;23.60;99.90;;;;;;5097191;28;20043;-65
2022/05/10 09:30:06;;;;;;;6.63;4.38;;;23.70;99.90;;;;;;5080324;28;20396;-63
2022/05/10 09:35:24;;;;;;;11.07;4.70;;;24.00;99.90;;;;;;5097913;28;20363;-66
2022/05/10 09:38:17;;;;;;;12.85;4.25;;;24.10;99.90;;;;;;5096864;28;20101;-67
2022/05/10 09:40:48;;;;;;;7.82;4.45;;;23.60;99.90;;;;;;5093683;28;20197;-67
2022/05/10 09:43:31;;;;;;;8.70;4.10;;;23.20;99.90;;;;;;5097634;28;20433;-67
2022/05/10 09:46:23;;;;;;;7.32;4.15;;;23.00;99.90;;;;;;5097819;28;20036;-66
2022/05/10 09:48:49;;;;;;;9.02;4.75;;;23.10;99.90;;;;;;5097792;28;20287;-66
2022/05/10 09:51:41;;;;;;;15.50;5.40;;;23.20;99.90;;;;;;5098339;28;20044;-68
2022/05/10 09:54:20;;;;;;;20.38;5.13;;;23.50;99.90;;;;;;5089491;28;20289;-68
2022/05/10 09:56:56;;;;;;;7.68;4.30;;;23.50;99.90;;;;;;5097979;28;20032;-67
2022/05/10 09:59:22;;;;;;;13.05;4.53;;;23.50;99.90;;;;;;5097553;28;20032;-66
2022/05/10 10:01:55;;;;;;;7.68;4.38;;;23.60;99.90;;;;;;5097643;28;20039;-67
2022/05/10 10:04:34;;;;;;;4.60;3.67;;;23.60;99.90;;;;;;5098134;28;20051;-66
2022/05/10 10:07:18;;;;;;;5.32;4.13;;;23.90;99.90;;;;;;5097332;28;20043;-66
2022/05/10 10:09:51;;;;;;;12.45;3.97;;;23.90;99.90;;;;;;5098038;28;20078;-68
2022/05/10 10:12:34;;;;;;;5.65;3.35;;;24.00;99.90;;;;;;5097497;28;20032;-65
2022/05/10 10:15:15;;;;;;;7.30;3.92;;;24.30;99.90;;;;;;5097358;28;20020;-67
2022/05/10 10:17:50;;;;;;;11.23;3.80;;;25.10;99.90;;;;;;5096339;28;20032;-65
2022/05/10 10:20:37;;;;;;;4.88;3.90;;;25.20;99.90;;;;;;5097604;28;20395;-66
2022/05/10 10:23:27;;;;;;;6.72;3.88;;;24.30;99.90;;;;;;5097099;28;20051;-65
2022/05/10 10:25:58;;;;;;;7.53;4.00;;;24.00;99.90;;;;;;5097563;28;20071;-65
2022/05/10 10:28:38;;;;;;;9.10;4.35;;;24.10;99.90;;;;;;5097231;28;20269;-65
2022/05/10 10:31:19;;;;;;;7.20;4.40;;;24.10;99.90;;;;;;5097289;28;20024;-66
2022/05/10 10:33:52;;;;;;;4.75;3.47;;;24.10;99.90;;;;;;5097024;28;20046;-65
2022/05/10 10:36:24;;;;;;;10.80;3.60;;;24.60;99.90;;;;;;5096997;28;20036;-63
2022/05/10 10:39:01;;;;;;;12.57;3.90;;;24.80;99.90;;;;;;5097249;28;20059;-65
2022/05/10 10:41:55;;;;;;;7.30;4.65;;;25.50;99.90;;;;;;5097376;28;20450;-64
2022/05/10 10:44:26;;;;;;;5.15;3.40;;;25.70;99.90;;;;;;5097272;28;20299;-66
2022/05/10 10:47:08;;;;;;;7.82;4.40;;;25.50;99.90;;;;;;5096921;28;20041;-65
2022/05/10 10:49:39;;;;;;;4.90;3.50;;;25.40;99.90;;;;;;5096060;28;20102;-65
2022/05/10 10:52:05;;;;;;;6.80;4.28;;;25.00;99.90;;;;;;5096796;28;20032;-65
2022/05/10 10:54:32;;;;;;;10.55;4.28;;;24.80;99.90;;;;;;5097310;28;20059;-63
2022/05/10 10:57:30;;;;;;;8.43;4.00;;;25.00;99.90;;;;;;5097055;28;20039;-66
2022/05/10 11:00:06;;;;;;;14.13;4.28;;;25.60;99.90;;;;;;5096945;28;20032;-65
2022/05/10 11:02:45;;;;;;;15.70;4.63;;;26.20;99.90;;;;;;5096946;28;20055;-63
2022/05/10 11:05:36;;;;;;;13.70;3.88;;;25.50;99.90;;;;;;5097240;28;20081;-63
2022/05/10 11:08:23;;;;;;;7.85;4.80;;;25.00;99.90;;;;;;5095885;28;20016;-66
2022/05/10 11:10:55;;;;;;;12.90;3.97;;;25.30;99.90;;;;;;5096669;28;20407;-65
2022/05/10 11:13:58;;;;;;;7.65;4.22;;;25.20;99.90;;;;;;5096239;28;20101;-66
2022/05/10 11:16:41;;;;;;;8.55;3.58;;;25.70;99.90;;;;;;5096626;28;20431;-63
2022/05/10 11:19:38;;;;;;;11.02;4.07;;;25.70;99.90;;;;;;5096616;28;20093;-65
2022/05/10 11:22:41;;;;;;;7.53;4.25;;;25.90;99.90;;;;;;5096418;28;20030;-66
2022/05/10 11:25:41;;;;;;;7.97;4.10;;;26.20;99.90;;;;;;5096398;28;20039;-66
2022/05/10 11:28:39;;;;;;;11.60;4.20;;;26.30;99.90;;;;;;5096964;28;20292;-65
2022/05/10 11:31:32;;;;;;;6.88;3.95;;;26.00;99.90;;;;;;5100249;28;20020;-62
2022/05/10 11:34:28;;;;;;;5.78;4.15;;;26.90;99.90;;;;;;5100374;28;20035;-63
2022/05/10 11:37:01;;;;;;;9.65;4.38;;;26.60;99.90;;;;;;5099318;28;20055;-64
2022/05/10 11:39:56;;;;;;;10.63;4.43;;;26.30;99.90;;;;;;5100252;28;20034;-66
2022/05/10 11:42:52;;;;;;;7.25;3.95;;;26.00;99.90;;;;;;5100061;28;20067;-64
2022/05/10 11:45:39;;;;;;;8.10;4.68;;;26.40;99.90;;;;;;5100545;28;20103;-63
2022/05/10 11:48:08;;;;;;;11.88;4.20;;;26.50;99.90;;;;;;5100061;28;20036;-64
2022/05/10 11:54:04;;;;;;;10.07;4.50;;;26.10;99.90;;;;;;5100255;28;20407;-66
2022/05/10 11:56:34;;;;;;;11.10;4.80;;;26.10;99.90;;;;;;5099697;28;20074;-63
2022/05/10 11:59:04;;;;;;;8.15;4.97;;;25.90;99.90;;;;;;5099892;28;20071;-67
2022/05/10 12:01:46;;;;;;;6.32;4.40;;;26.00;99.90;;;;;;5082203;28;20396;-65
2022/05/10 12:04:37;;;;;;;5.63;4.00;;;26.10;99.90;;;;;;5099411;28;20128;-66
2022/05/10 12:07:22;;;;;;;7.13;4.22;;;26.40;99.90;;;;;;5099381;28;20262;-65
2022/05/10 12:10:07;;;;;;;8.20;4.25;;;26.20;99.90;;;;;;5099813;28;20068;-66
2022/05/10 12:12:33;;;;;;;8.43;4.10;;;25.60;99.90;;;;;;5099726;28;20113;-65
2022/05/10 12:21:19;;;;;;;7.70;3.60;;;24.70;99.90;;;;;;5088527;28;19908;-65
2022/05/10 12:24:11;;;;;;;6.95;3.33;;;25.60;99.90;;;;;;5099214;28;20027;-67
2022/05/10 12:26:49;;;;;;;13.35;3.67;;;26.10;99.90;;;;;;5099536;28;20028;-65
2022/05/10 12:29:39;;;;;;;10.50;3.65;;;25.90;99.90;;;;;;5099099;28;20036;-65
2022/05/10 12:32:38;;;;;;;8.73;3.38;;;25.70;99.90;;;;;;5099382;28;20157;-64
2022/05/10 12:35:39;;;;;;;7.07;3.30;;;26.30;99.90;;;;;;5099124;28;20071;-67
2022/05/10 12:38:06;;;;;;;11.95;3.30;;;26.60;99.60;;;;;;5099089;28;20127;-66
2022/05/10 12:40:33;;;;;;;6.95;2.97;;;26.30;99.10;;;;;;5098565;28;20024;-65
2022/05/10 12:43:17;;;;;;;7.70;2.60;;;26.30;99.20;;;;;;5098823;28;20103;-64
2022/05/10 12:45:48;;;;;;;8.02;3.10;;;27.00;98.50;;;;;;5099524;28;20398;-64
2022/05/10 12:48:43;;;;;;;4.80;2.78;;;28.00;96.80;;;;;;5099110;28;20063;-63
2022/05/10 12:51:49;;;;;;;6.57;3.28;;;28.00;96.10;;;;;;5099311;28;20032;-62
2022/05/10 12:54:24;;;;;;;6.28;3.13;;;28.40;95.70;;;;;;5099496;28;20020;-67
2022/05/10 12:57:14;;;;;;;6.40;2.88;;;28.20;95.40;;;;;;5098950;28;20054;-65
2022/05/10 13:00:12;;;;;;;4.70;2.50;;;29.50;93.90;;;;;;5099825;28;20380;-64
2022/05/10 13:02:49;;;;;;;4.38;2.53;;;30.90;91.20;;;;;;5093247;28;20418;-65
2022/05/10 13:05:18;;;;;;;3.40;2.25;;;29.90;91.00;;;;;;5098812;28;20122;-63
2022/05/10 13:08:10;;;;;;;4.55;2.42;;;29.50;91.60;;;;;;5099622;28;20036;-64
2022/05/10 13:10:37;;;;;;;3.80;2.38;;;28.40;91.80;;;;;;5100591;28;20063;-64
2022/05/10 13:13:16;;;;;;;9.45;2.85;;;28.50;92.00;;;;;;5101746;28;20273;-67
2022/05/10 13:15:45;;;;;;;3.88;2.33;;;28.00;91.70;;;;;;5098914;28;20019;-65
2022/05/10 13:18:17;;;;;;;7.78;2.10;;;27.90;92.10;;;;;;5098169;28;20066;-62
2022/05/10 13:20:50;;;;;;;4.95;2.20;;;28.50;91.50;;;;;;5098581;28;20396;-67
2022/05/10 13:23:16;;;;;;;5.55;1.90;;;29.20;88.90;;;;;;5098287;28;20048;-64
2022/05/10 13:25:43;;;;;;;3.45;2.08;;;28.90;88.80;;;;;;5098003;28;20115;-66
2022/05/10 13:28:12;;;;;;;3.75;2.10;;;29.30;87.50;;;;;;5098748;28;20083;-64
2022/05/10 13:30:41;;;;;;;2.05;1.80;;;29.40;86.00;;;;;;5098667;28;20283;-64
2022/05/10 13:33:09;;;;;;;8.65;2.40;;;29.50;85.20;;;;;;5097595;28;20020;-64
2022/05/10 13:35:36;;;;;;;7.38;1.90;;;28.80;85.10;;;;;;5098213;28;20039;-65